createdAt,value
2023-01-25T00:01:08.513Z,29.00
2023-01-25T00:03:39.499Z,29.50
2023-01-25T00:06:11.721Z,28.80
2023-01-25T00:08:42.618Z,30.20
2023-01-25T00:11:13.626Z,32.30
2023-01-25T00:13:44.631Z,33.20
2023-01-25T00:16:16.374Z,35.30
2023-01-25T00:18:47.373Z,28.80
2023-01-25T00:21:20.970Z,23.60
2023-01-25T00:23:52.643Z,22.20
2023-01-25T00:26:24.170Z,27.30
2023-01-25T00:28:56.739Z,27.90
2023-01-25T00:31:39.484Z,25.20
2023-01-25T00:34:48.556Z,23.10
2023-01-25T00:37:30.089Z,30.40
2023-01-25T00:40:01.803Z,28.10
2023-01-25T00:42:32.734Z,28.70
2023-01-25T00:45:03.686Z,29.80
2023-01-25T00:47:34.614Z,31.30
2023-01-25T00:50:10.534Z,29.30
2023-01-25T00:52:43.776Z,28.70
2023-01-25T00:55:14.860Z,29.30
2023-01-25T00:57:45.903Z,24.40
2023-01-25T01:00:18.067Z,24.20
2023-01-25T01:02:50.597Z,24.00
2023-01-25T01:05:21.548Z,26.90
2023-01-25T01:07:53.451Z,25.80
2023-01-25T01:10:24.388Z,22.50
2023-01-25T01:12:55.744Z,23.00
2023-01-25T01:15:26.838Z,21.90
2023-01-25T01:17:59.508Z,23.00
2023-01-25T01:20:31.455Z,24.10
2023-01-25T01:23:02.488Z,21.20
2023-01-25T01:25:33.605Z,19.50
2023-01-25T01:28:04.696Z,28.60
2023-01-25T01:30:35.594Z,19.20
2023-01-25T01:33:07.108Z,21.00
2023-01-25T01:35:38.086Z,19.90
2023-01-25T01:38:09.022Z,26.20
2023-01-25T01:40:45.553Z,20.40
2023-01-25T01:43:20.747Z,20.20
2023-01-25T01:48:39.363Z,23.80
2023-01-25T01:51:20.764Z,17.30
2023-01-25T01:53:55.847Z,19.10
2023-01-25T01:56:33.069Z,16.90
2023-01-25T01:59:08.008Z,17.50
2023-01-25T02:01:39.512Z,21.00
2023-01-25T02:04:12.368Z,20.70
2023-01-25T02:06:48.567Z,21.80
2023-01-25T02:09:23.877Z,16.00
2023-01-25T02:11:56.432Z,17.70
2023-01-25T02:14:29.367Z,17.40
2023-01-25T02:17:01.694Z,18.80
2023-01-25T02:19:45.180Z,22.40
2023-01-25T02:22:23.201Z,17.70
2023-01-25T02:25:02.418Z,18.20
2023-01-25T02:27:33.804Z,21.10
2023-01-25T02:30:05.710Z,18.70
2023-01-25T02:32:36.883Z,16.90
2023-01-25T02:35:15.950Z,19.50
2023-01-25T02:37:47.569Z,17.50
2023-01-25T02:40:19.773Z,18.00
2023-01-25T02:42:50.884Z,16.50
2023-01-25T02:45:29.810Z,18.90
2023-01-25T02:48:00.777Z,19.80
2023-01-25T02:50:31.744Z,19.70
2023-01-25T02:53:02.814Z,18.30
2023-01-25T02:55:33.856Z,14.90
2023-01-25T02:58:04.825Z,18.50
2023-01-25T03:00:37.654Z,16.90
2023-01-25T03:03:08.730Z,17.80
2023-01-25T03:05:39.663Z,17.90
2023-01-25T03:08:10.711Z,19.30
2023-01-25T03:10:41.666Z,22.70
2023-01-25T03:13:12.729Z,21.70
2023-01-25T03:15:44.072Z,19.20
2023-01-25T03:18:15.284Z,17.80
2023-01-25T03:20:46.250Z,19.00
2023-01-25T03:23:17.243Z,15.50
2023-01-25T03:25:50.543Z,22.00
2023-01-25T03:28:21.994Z,20.00
2023-01-25T03:30:56.780Z,17.00
2023-01-25T03:33:29.210Z,18.20
2023-01-25T03:36:00.755Z,16.90
2023-01-25T03:38:32.354Z,16.80
2023-01-25T03:41:04.889Z,19.20
2023-01-25T03:43:36.887Z,18.30
2023-01-25T03:46:08.192Z,19.20
2023-01-25T03:48:39.260Z,14.00
2023-01-25T03:51:10.397Z,17.00
2023-01-25T03:53:41.381Z,14.30
2023-01-25T03:56:20.522Z,14.00
2023-01-25T03:59:15.183Z,12.60
2023-01-25T04:01:47.091Z,14.00
2023-01-25T04:04:18.561Z,14.80
2023-01-25T04:06:50.016Z,13.20
2023-01-25T04:09:22.098Z,14.00
2023-01-25T04:11:55.339Z,15.00
2023-01-25T04:14:43.193Z,12.40
2023-01-25T04:17:15.803Z,13.90
2023-01-25T04:19:58.809Z,18.30
2023-01-25T04:22:33.008Z,16.80
2023-01-25T04:25:04.162Z,19.40
2023-01-25T04:27:36.034Z,20.40
2023-01-25T04:30:12.739Z,21.90
2023-01-25T04:32:44.170Z,22.10
2023-01-25T04:35:28.419Z,21.50
2023-01-25T04:38:00.893Z,26.30
2023-01-25T04:40:38.915Z,28.40
2023-01-25T04:43:11.008Z,24.70
2023-01-25T04:45:42.098Z,26.50
2023-01-25T04:48:17.853Z,27.50
2023-01-25T04:50:53.423Z,31.10
2023-01-25T04:53:25.669Z,31.10
2023-01-25T04:55:57.080Z,30.70
2023-01-25T04:58:28.293Z,27.40
2023-01-25T05:01:03.057Z,31.50
2023-01-25T05:03:34.941Z,29.10
2023-01-25T05:06:07.694Z,28.00
2023-01-25T05:08:39.292Z,28.90
2023-01-25T05:11:10.393Z,28.60
2023-01-25T05:13:48.363Z,31.00
2023-01-25T05:16:28.977Z,32.80
2023-01-25T05:19:00.266Z,36.70
2023-01-25T05:22:00.549Z,39.30
2023-01-25T05:24:41.795Z,32.30
2023-01-25T05:27:17.058Z,39.80
2023-01-25T05:30:00.432Z,48.20
2023-01-25T05:32:41.120Z,38.20
2023-01-25T05:35:14.033Z,42.40
2023-01-25T05:37:45.262Z,44.40
2023-01-25T05:40:21.749Z,43.10
2023-01-25T05:42:58.518Z,44.30
2023-01-25T05:45:31.191Z,47.50
2023-01-25T05:48:02.354Z,54.40
2023-01-25T05:50:34.198Z,44.40
2023-01-25T05:53:08.794Z,49.50
2023-01-25T05:55:40.967Z,44.30
2023-01-25T05:58:14.257Z,49.00
2023-01-25T06:00:45.631Z,46.80
2023-01-25T06:03:20.956Z,51.70
2023-01-25T06:05:57.867Z,48.70
2023-01-25T06:08:28.892Z,48.50
2023-01-25T06:11:00.760Z,51.40
2023-01-25T06:13:31.665Z,46.10
2023-01-25T06:16:03.360Z,53.40
2023-01-25T06:18:59.467Z,47.30
2023-01-25T06:21:49.150Z,61.30
2023-01-25T06:24:20.114Z,59.00
2023-01-25T06:26:51.219Z,49.50
2023-01-25T06:29:22.136Z,52.20
2023-01-25T06:31:53.303Z,56.10
2023-01-25T06:34:25.231Z,45.80
2023-01-25T06:36:57.033Z,47.60
2023-01-25T06:39:29.872Z,47.30
2023-01-25T06:42:00.897Z,48.70
2023-01-25T06:44:31.910Z,56.50
2023-01-25T06:47:03.286Z,52.10
2023-01-25T06:49:34.332Z,41.00
2023-01-25T06:52:05.589Z,35.90
2023-01-25T06:54:36.676Z,43.60
2023-01-25T06:57:10.465Z,40.10
2023-01-25T06:59:41.437Z,35.60
2023-01-25T07:02:17.229Z,41.10
2023-01-25T07:04:48.914Z,39.50
2023-01-25T07:07:20.584Z,31.60
2023-01-25T07:09:52.074Z,38.20
2023-01-25T07:12:23.012Z,41.30
2023-01-25T07:14:55.221Z,34.40
2023-01-25T07:17:26.264Z,37.90
2023-01-25T07:19:57.497Z,37.70
2023-01-25T07:22:28.644Z,30.90
2023-01-25T07:25:00.151Z,37.30
2023-01-25T07:27:33.951Z,37.50
2023-01-25T07:30:05.251Z,33.50
2023-01-25T07:32:36.187Z,38.20
2023-01-25T07:35:08.531Z,37.40
2023-01-25T07:37:39.899Z,32.20
2023-01-25T07:40:15.386Z,39.30
2023-01-25T07:42:47.490Z,40.80
2023-01-25T07:45:20.803Z,36.00
2023-01-25T07:47:51.995Z,41.40
2023-01-25T07:50:22.905Z,40.70
2023-01-25T07:52:54.077Z,39.30
2023-01-25T07:55:25.185Z,40.90
2023-01-25T07:57:58.455Z,42.70
2023-01-25T08:00:29.415Z,40.30
2023-01-25T08:03:00.366Z,40.90
2023-01-25T08:05:31.687Z,41.20
2023-01-25T08:08:02.780Z,42.50
2023-01-25T08:10:33.682Z,47.20
2023-01-25T08:13:04.624Z,44.90
2023-01-25T08:15:35.817Z,43.40
2023-01-25T08:18:07.100Z,52.60
2023-01-25T08:20:39.047Z,44.30
2023-01-25T08:23:10.105Z,41.90
2023-01-25T08:25:41.482Z,42.40
2023-01-25T08:28:12.501Z,42.90
2023-01-25T08:30:56.460Z,47.50
2023-01-25T08:33:28.174Z,49.00
2023-01-25T08:35:59.661Z,44.40
2023-01-25T08:38:30.699Z,38.20
2023-01-25T08:41:09.195Z,39.00
2023-01-25T08:43:40.553Z,42.50
2023-01-25T08:46:12.759Z,36.10
2023-01-25T08:48:44.615Z,34.30
2023-01-25T08:51:17.177Z,37.10
2023-01-25T08:53:48.233Z,39.00
2023-01-25T08:56:22.922Z,41.00
2023-01-25T08:58:54.040Z,39.50
2023-01-25T09:01:25.097Z,38.70
2023-01-25T09:03:57.042Z,42.60
2023-01-25T09:06:28.244Z,44.70
2023-01-25T09:08:59.500Z,49.70
2023-01-25T09:11:30.552Z,45.10
2023-01-25T09:14:01.587Z,40.90
2023-01-25T09:16:32.531Z,43.30
2023-01-25T09:19:05.480Z,42.30
2023-01-25T09:21:37.408Z,43.10
2023-01-25T09:24:09.186Z,41.90
2023-01-25T09:26:46.013Z,38.70
2023-01-25T09:29:20.996Z,42.50
2023-01-25T09:31:52.518Z,42.90
2023-01-25T09:34:37.812Z,41.00
2023-01-25T09:37:08.773Z,48.00
2023-01-25T09:39:39.784Z,39.50
2023-01-25T09:42:41.077Z,46.00
2023-01-25T09:45:30.539Z,38.50
2023-01-25T09:48:12.152Z,48.40
2023-01-25T09:51:02.550Z,44.80
2023-01-25T09:53:39.372Z,50.40
2023-01-25T09:56:18.858Z,46.00
2023-01-25T09:58:53.389Z,45.20
2023-01-25T10:01:39.234Z,46.30
2023-01-25T10:04:18.215Z,42.40
2023-01-25T10:07:00.619Z,47.10
2023-01-25T10:09:38.723Z,48.60
2023-01-25T10:12:19.936Z,46.30
2023-01-25T10:14:51.895Z,47.20
2023-01-25T10:17:28.880Z,41.20
2023-01-25T10:20:26.051Z,41.90
2023-01-25T10:23:13.051Z,44.20
2023-01-25T10:25:48.002Z,42.40
2023-01-25T10:28:34.564Z,42.90
2023-01-25T10:31:08.480Z,40.80
2023-01-25T10:33:48.607Z,42.30
2023-01-25T10:36:23.143Z,45.60
2023-01-25T10:38:59.303Z,47.60
2023-01-25T10:41:37.903Z,44.00
2023-01-25T10:44:25.187Z,46.40
2023-01-25T10:47:07.406Z,43.90
2023-01-25T10:49:44.113Z,41.30
2023-01-25T10:52:20.469Z,46.50
2023-01-25T10:55:10.015Z,44.60
2023-01-25T10:57:44.367Z,42.70
2023-01-25T11:00:30.710Z,43.60
2023-01-25T11:03:02.257Z,44.20
2023-01-25T11:05:36.289Z,41.70
2023-01-25T11:08:26.113Z,44.20
2023-01-25T11:10:58.464Z,42.20
2023-01-25T11:13:31.036Z,47.10
2023-01-25T11:16:22.003Z,51.10
2023-01-25T11:18:57.542Z,53.20
2023-01-25T11:21:30.381Z,40.70
2023-01-25T11:24:19.214Z,42.20
2023-01-25T11:26:50.287Z,45.40
2023-01-25T11:29:24.342Z,46.80
2023-01-25T11:31:59.099Z,47.20
2023-01-25T11:34:31.452Z,44.10
2023-01-25T11:37:19.159Z,48.00
2023-01-25T11:39:58.657Z,48.80
2023-01-25T11:42:43.574Z,48.60
2023-01-25T11:45:39.670Z,47.50
2023-01-25T11:48:25.508Z,48.10
2023-01-25T11:51:07.432Z,47.20
2023-01-25T11:53:51.613Z,50.20
2023-01-25T11:56:35.390Z,52.40
2023-01-25T11:59:21.145Z,55.40
2023-01-25T12:02:10.170Z,46.20
2023-01-25T12:04:57.754Z,53.60
2023-01-25T12:07:42.110Z,54.10
2023-01-25T12:10:25.898Z,46.40
2023-01-25T12:13:04.152Z,52.70
2023-01-25T12:15:58.144Z,46.80
2023-01-25T12:18:50.840Z,56.10
2023-01-25T12:21:36.778Z,48.90
2023-01-25T12:24:27.143Z,51.40
2023-01-25T12:27:11.011Z,50.00
2023-01-25T12:29:46.316Z,50.80
2023-01-25T12:32:28.463Z,52.30
2023-01-25T12:35:18.297Z,48.80
2023-01-25T12:37:51.133Z,56.00
2023-01-25T12:40:31.301Z,55.10
2023-01-25T12:43:02.913Z,56.40
2023-01-25T12:45:38.958Z,62.80
2023-01-25T12:48:20.263Z,56.60
2023-01-25T12:50:56.248Z,53.10
2023-01-25T12:53:32.621Z,56.60
2023-01-25T12:56:06.236Z,54.00
2023-01-25T12:58:45.098Z,59.90
2023-01-25T13:01:25.398Z,53.60
2023-01-25T13:04:12.104Z,58.10
2023-01-25T13:06:53.302Z,50.90
2023-01-25T13:09:31.297Z,54.10
2023-01-25T13:12:05.736Z,54.70
2023-01-25T13:14:40.751Z,51.30
2023-01-25T13:17:24.019Z,50.80
2023-01-25T13:19:55.106Z,53.50
2023-01-25T13:23:01.872Z,52.70
2023-01-25T13:25:33.099Z,53.50
2023-01-25T13:28:34.699Z,52.20
2023-01-25T13:31:06.113Z,51.40
2023-01-25T13:33:38.085Z,52.30
2023-01-25T13:36:40.283Z,49.00
2023-01-25T13:39:45.473Z,52.10
2023-01-25T13:42:27.817Z,47.10
2023-01-25T13:45:04.183Z,54.50
2023-01-25T13:47:38.231Z,48.60
2023-01-25T13:50:23.690Z,54.50
2023-01-25T13:53:01.979Z,48.30
2023-01-25T13:55:41.876Z,46.90
2023-01-25T13:58:18.355Z,46.20
2023-01-25T14:00:55.620Z,49.30
2023-01-25T14:03:29.452Z,50.40
2023-01-25T14:06:02.792Z,49.90
2023-01-25T14:08:34.878Z,52.80
2023-01-25T14:11:06.417Z,46.70
2023-01-25T14:13:37.411Z,53.00
2023-01-25T14:16:13.372Z,50.80
2023-01-25T14:18:45.394Z,51.40
2023-01-25T14:21:20.414Z,49.60
2023-01-25T14:23:53.646Z,50.40
2023-01-25T14:26:29.128Z,50.50
2023-01-25T14:29:02.606Z,48.80
2023-01-25T14:31:37.757Z,51.00
2023-01-25T14:34:16.732Z,51.20
2023-01-25T14:36:47.727Z,50.80
2023-01-25T14:39:29.263Z,52.80
2023-01-25T14:42:02.021Z,45.90
2023-01-25T14:44:34.589Z,50.90
2023-01-25T14:47:29.904Z,48.40
2023-01-25T14:50:37.575Z,45.40
2023-01-25T14:53:18.998Z,43.50
2023-01-25T14:55:52.196Z,44.00
2023-01-25T14:58:29.168Z,47.20
2023-01-25T15:01:02.900Z,44.30
2023-01-25T15:03:34.230Z,38.60
2023-01-25T15:06:07.372Z,42.00
2023-01-25T15:08:41.179Z,45.30
2023-01-25T15:11:38.921Z,46.60
2023-01-25T15:14:20.123Z,37.50
2023-01-25T15:16:51.206Z,45.40
2023-01-25T15:19:28.923Z,51.20
2023-01-25T15:22:01.288Z,53.90
2023-01-25T15:24:32.245Z,52.00
2023-01-25T15:27:03.902Z,52.50
2023-01-25T15:29:34.881Z,56.80
2023-01-25T15:32:06.396Z,58.80
2023-01-25T15:34:37.300Z,53.70
2023-01-25T15:37:09.696Z,55.80
2023-01-25T15:39:40.697Z,60.40
2023-01-25T15:42:12.059Z,55.20
2023-01-25T15:44:43.147Z,59.00
2023-01-25T15:47:14.601Z,56.00
2023-01-25T15:49:45.530Z,59.50
2023-01-25T15:52:16.658Z,60.70
2023-01-25T15:54:55.955Z,65.90
2023-01-25T15:57:35.833Z,57.40
2023-01-25T16:00:09.244Z,55.10
2023-01-25T16:02:40.424Z,59.20
2023-01-25T16:05:11.991Z,59.90
2023-01-25T16:07:45.164Z,68.70
2023-01-25T16:10:24.777Z,59.90
2023-01-25T16:12:55.800Z,41.50
2023-01-25T16:15:27.512Z,46.90
2023-01-25T16:17:58.557Z,54.20
2023-01-25T16:20:30.054Z,50.50
2023-01-25T16:23:01.415Z,49.70
2023-01-25T16:25:32.448Z,51.00
2023-01-25T16:28:03.552Z,53.10
2023-01-25T16:30:34.675Z,50.40
2023-01-25T16:33:06.925Z,49.70
2023-01-25T16:35:37.873Z,56.30
2023-01-25T16:38:11.692Z,52.20
2023-01-25T16:40:42.682Z,44.40
2023-01-25T16:43:14.354Z,57.90
2023-01-25T16:45:45.274Z,54.70
2023-01-25T16:48:16.991Z,54.20
2023-01-25T16:50:50.449Z,51.10
2023-01-25T16:53:21.841Z,56.90
2023-01-25T16:55:52.778Z,52.90
2023-01-25T16:58:23.675Z,56.70
2023-01-25T17:00:54.626Z,51.60
2023-01-25T17:03:25.608Z,49.40
2023-01-25T17:05:56.672Z,53.30
2023-01-25T17:08:29.002Z,53.10
2023-01-25T17:11:03.747Z,53.40
2023-01-25T17:13:34.913Z,53.70
2023-01-25T17:16:06.661Z,56.70
2023-01-25T17:18:37.629Z,57.90
2023-01-25T17:21:09.417Z,51.40
2023-01-25T17:23:40.749Z,54.60
2023-01-25T17:26:14.544Z,64.90
2023-01-25T17:28:46.572Z,56.60
2023-01-25T17:31:20.744Z,55.00
2023-01-25T17:33:52.838Z,56.40
2023-01-25T17:36:24.299Z,57.80
2023-01-25T17:38:55.800Z,59.00
2023-01-25T17:41:26.697Z,51.00
2023-01-25T17:43:57.977Z,55.00
2023-01-25T17:46:33.115Z,64.60
2023-01-25T17:49:07.206Z,56.20
2023-01-25T17:51:38.791Z,58.60
2023-01-25T17:54:10.939Z,59.70
2023-01-25T17:56:42.353Z,57.50
2023-01-25T17:59:13.348Z,54.90
2023-01-25T18:01:44.420Z,48.40
2023-01-25T18:04:17.765Z,60.20
2023-01-25T18:06:49.157Z,51.70
2023-01-25T18:09:23.877Z,49.30
2023-01-25T18:11:54.772Z,52.60
2023-01-25T18:14:25.823Z,51.60
2023-01-25T18:16:57.090Z,54.10
2023-01-25T18:19:31.987Z,55.90
2023-01-25T18:22:02.958Z,49.20
2023-01-25T18:24:35.502Z,49.10
2023-01-25T18:27:22.976Z,47.80
2023-01-25T18:30:03.107Z,53.20
2023-01-25T18:32:34.116Z,49.20
2023-01-25T18:35:05.569Z,50.80
2023-01-25T18:37:43.684Z,57.20
2023-01-25T18:40:17.680Z,55.60
2023-01-25T18:42:49.589Z,60.20
2023-01-25T18:45:21.319Z,59.50
2023-01-25T18:47:52.379Z,53.80
2023-01-25T18:50:23.821Z,60.10
2023-01-25T18:52:55.813Z,52.80
2023-01-25T18:55:27.830Z,60.50
2023-01-25T18:58:04.127Z,60.80
2023-01-25T19:00:36.077Z,55.00
2023-01-25T19:03:07.222Z,59.50
2023-01-25T19:05:38.354Z,56.60
2023-01-25T19:08:09.700Z,52.00
2023-01-25T19:10:40.842Z,54.50
2023-01-25T19:13:12.021Z,58.30
2023-01-25T19:15:43.575Z,56.00
2023-01-25T19:18:15.117Z,50.60
2023-01-25T19:20:47.168Z,51.20
2023-01-25T19:23:18.422Z,56.20
2023-01-25T19:25:56.118Z,53.20
2023-01-25T19:28:27.512Z,59.10
2023-01-25T19:30:59.094Z,52.80
2023-01-25T19:33:30.486Z,54.00
2023-01-25T19:36:06.683Z,53.30
2023-01-25T19:38:41.419Z,55.90
2023-01-25T19:41:14.216Z,54.10
2023-01-25T19:43:45.507Z,60.50
2023-01-25T19:46:20.193Z,52.40
2023-01-25T19:48:53.166Z,52.10
2023-01-25T19:51:26.303Z,59.90
2023-01-25T19:54:00.290Z,54.20
2023-01-25T19:56:34.351Z,60.60
2023-01-25T19:59:07.387Z,57.20
2023-01-25T20:01:43.964Z,53.00
2023-01-25T20:04:17.013Z,52.20
2023-01-25T20:06:49.196Z,53.40
2023-01-25T20:09:28.138Z,41.90
2023-01-25T20:12:00.878Z,54.40
2023-01-25T20:14:32.020Z,53.30
2023-01-25T20:17:03.356Z,53.20
2023-01-25T20:19:35.284Z,54.20
2023-01-25T20:22:07.092Z,48.50
2023-01-25T20:24:38.187Z,46.80
2023-01-25T20:27:09.476Z,53.50
2023-01-25T20:29:41.363Z,52.10
2023-01-25T20:32:26.686Z,49.60
2023-01-25T20:35:06.116Z,41.20
2023-01-25T20:37:37.648Z,47.90
2023-01-25T20:40:12.524Z,50.70
2023-01-25T20:42:43.590Z,51.60
2023-01-25T20:45:17.290Z,50.80
2023-01-25T20:47:48.571Z,46.60
2023-01-25T20:50:20.399Z,50.30
2023-01-25T20:52:52.573Z,50.40
2023-01-25T20:55:23.597Z,52.90
2023-01-25T20:57:54.659Z,51.00
2023-01-25T21:00:26.993Z,54.20
2023-01-25T21:02:58.274Z,52.60
2023-01-25T21:05:29.524Z,51.60
2023-01-25T21:08:00.534Z,58.70
2023-01-25T21:10:31.610Z,51.70
2023-01-25T21:13:02.859Z,52.10
2023-01-25T21:15:33.901Z,52.60
2023-01-25T21:18:05.090Z,49.70
2023-01-25T21:20:36.631Z,57.30
2023-01-25T21:23:07.567Z,54.50
2023-01-25T21:25:38.744Z,52.60
2023-01-25T21:28:10.039Z,62.90
2023-01-25T21:30:41.138Z,61.00
2023-01-25T21:33:13.040Z,53.60
2023-01-25T21:35:44.286Z,53.90
2023-01-25T21:38:15.368Z,60.40
2023-01-25T21:40:46.581Z,58.90
2023-01-25T21:43:18.390Z,67.30
2023-01-25T21:46:07.199Z,64.40
2023-01-25T21:48:56.126Z,61.90
2023-01-25T21:51:36.616Z,66.90
2023-01-25T21:54:08.183Z,70.60
2023-01-25T21:56:39.125Z,70.60
2023-01-25T21:59:10.319Z,71.70
2023-01-25T22:01:43.131Z,68.70
2023-01-25T22:04:17.175Z,75.50
2023-01-25T22:06:50.659Z,65.30
2023-01-25T22:09:21.838Z,76.20
2023-01-25T22:11:54.293Z,68.30
2023-01-25T22:14:25.998Z,78.00
2023-01-25T22:16:58.119Z,70.30
2023-01-25T22:19:29.666Z,75.70
2023-01-25T22:22:00.658Z,61.40
2023-01-25T22:24:31.798Z,63.30
2023-01-25T22:27:26.956Z,61.50
2023-01-25T22:29:58.072Z,76.20
2023-01-25T22:32:29.352Z,77.40
2023-01-25T22:35:00.295Z,63.20
2023-01-25T22:37:31.474Z,67.60
2023-01-25T22:40:02.346Z,67.70
2023-01-25T22:42:33.214Z,74.50
2023-01-25T22:45:04.294Z,77.80
2023-01-25T22:47:35.411Z,75.60
2023-01-25T22:50:07.587Z,74.60
2023-01-25T22:52:38.756Z,71.20
2023-01-25T22:55:10.921Z,77.00
2023-01-25T22:57:42.171Z,70.70
2023-01-25T23:00:15.442Z,71.30
2023-01-25T23:02:46.394Z,66.50
2023-01-25T23:05:17.528Z,68.70
2023-01-25T23:07:48.819Z,68.90
2023-01-25T23:10:20.200Z,64.50
2023-01-25T23:12:51.213Z,77.60
2023-01-25T23:15:22.212Z,70.90
2023-01-25T23:18:13.127Z,66.50
2023-01-25T23:20:44.628Z,63.90
2023-01-25T23:23:15.876Z,59.10
2023-01-25T23:25:48.878Z,64.80
2023-01-25T23:28:19.938Z,61.90
2023-01-25T23:30:51.239Z,66.90
2023-01-25T23:33:22.327Z,56.00
2023-01-25T23:35:53.436Z,68.20
2023-01-25T23:38:24.533Z,66.00
2023-01-25T23:40:55.436Z,57.70
2023-01-25T23:43:26.410Z,61.90
2023-01-25T23:45:57.362Z,59.00
2023-01-25T23:48:28.477Z,60.20
2023-01-25T23:50:59.581Z,63.00
2023-01-25T23:53:32.179Z,61.50
2023-01-25T23:56:06.324Z,57.70
2023-01-25T23:58:38.299Z,62.90
